createdAt,value
2022-09-15T00:00:47.090Z,5.40
2022-09-15T00:03:44.604Z,3.00
2022-09-15T00:06:41.964Z,5.00
2022-09-15T00:09:39.707Z,9.00
2022-09-15T00:12:36.342Z,5.00
2022-09-15T00:15:33.267Z,5.40
2022-09-15T00:18:30.888Z,6.80
2022-09-15T00:21:31.025Z,9.20
2022-09-15T00:24:28.392Z,8.60
2022-09-15T00:27:25.206Z,11.40
2022-09-15T00:30:22.910Z,11.80
2022-09-15T00:33:21.529Z,9.40
2022-09-15T00:36:18.409Z,6.00
2022-09-15T00:39:15.851Z,5.80
2022-09-15T00:42:16.989Z,7.40
2022-09-15T00:45:16.122Z,8.00
2022-09-15T00:48:16.104Z,9.60
2022-09-15T00:51:15.038Z,8.00
2022-09-15T00:54:21.576Z,4.00
2022-09-15T00:58:06.825Z,6.20
2022-09-15T01:01:04.043Z,4.00
2022-09-15T01:04:01.795Z,4.00
2022-09-15T01:07:02.738Z,4.00
2022-09-15T01:10:04.466Z,3.80
2022-09-15T01:13:04.075Z,6.00
2022-09-15T01:16:19.978Z,4.80
2022-09-15T01:19:18.551Z,3.00
2022-09-15T01:22:57.179Z,3.00
2022-09-15T01:26:16.064Z,4.80
2022-09-15T01:29:41.404Z,3.00
2022-09-15T01:33:14.857Z,4.20
2022-09-15T01:36:24.505Z,5.00
2022-09-15T01:39:25.090Z,5.40
2022-09-15T01:42:22.535Z,5.00
2022-09-15T01:45:22.301Z,8.00
2022-09-15T01:48:24.965Z,4.80
2022-09-15T01:51:23.392Z,5.00
2022-09-15T01:54:22.230Z,6.60
2022-09-15T01:57:22.176Z,7.00
2022-09-15T02:00:19.863Z,7.00
2022-09-15T02:03:20.479Z,5.80
2022-09-15T02:06:40.783Z,6.20
2022-09-15T02:09:42.512Z,4.40
2022-09-15T02:12:47.888Z,5.00
2022-09-15T02:15:51.759Z,9.00
2022-09-15T02:18:56.595Z,7.00
2022-09-15T02:22:11.090Z,7.00
2022-09-15T02:25:11.455Z,7.00
2022-09-15T02:28:09.004Z,8.00
2022-09-15T02:31:09.203Z,7.00
2022-09-15T02:34:11.047Z,8.00
2022-09-15T02:37:08.716Z,8.20
2022-09-15T02:40:06.385Z,11.40
2022-09-15T02:43:03.776Z,9.20
2022-09-15T02:46:00.723Z,7.40
2022-09-15T02:48:57.671Z,9.20
2022-09-15T02:51:54.520Z,8.00
2022-09-15T02:54:51.873Z,9.20
2022-09-15T02:57:48.993Z,8.40
2022-09-15T03:00:46.389Z,8.00
2022-09-15T03:03:44.104Z,8.60
2022-09-15T03:06:41.721Z,8.80
2022-09-15T03:09:38.524Z,9.20
2022-09-15T03:12:40.521Z,7.00
2022-09-15T03:15:37.938Z,9.00
2022-09-15T03:18:35.015Z,8.20
2022-09-15T03:21:33.011Z,9.40
2022-09-15T03:24:30.765Z,9.80
2022-09-15T03:27:27.876Z,9.40
2022-09-15T03:30:24.698Z,10.80
2022-09-15T03:33:22.271Z,6.60
2022-09-15T03:36:19.482Z,9.80
2022-09-15T03:39:17.027Z,11.20
2022-09-15T03:42:14.171Z,9.40
2022-09-15T03:45:11.600Z,10.20
2022-09-15T03:48:08.768Z,8.60
2022-09-15T03:51:06.578Z,8.00
2022-09-15T03:54:03.876Z,9.60
2022-09-15T03:57:00.432Z,8.00
2022-09-15T03:59:58.030Z,9.00
2022-09-15T04:02:54.700Z,9.60
2022-09-15T04:05:51.578Z,7.00
2022-09-15T04:08:49.331Z,6.00
2022-09-15T04:11:46.796Z,6.20
2022-09-15T04:14:43.619Z,6.20
2022-09-15T04:17:40.957Z,6.20
2022-09-15T04:20:41.486Z,7.20
2022-09-15T04:23:39.209Z,6.00
2022-09-15T04:26:36.859Z,4.00
2022-09-15T04:29:33.699Z,4.00
2022-09-15T04:32:30.576Z,4.00
2022-09-15T04:35:27.437Z,3.80
2022-09-15T04:38:24.853Z,3.40
2022-09-15T04:41:22.252Z,5.20
2022-09-15T04:44:19.869Z,4.00
2022-09-15T04:47:16.471Z,5.00
2022-09-15T04:50:14.240Z,3.00
2022-09-15T04:53:11.899Z,1.80
2022-09-15T04:56:13.732Z,2.00
2022-09-15T04:59:14.651Z,3.00
2022-09-15T05:02:11.944Z,4.00
2022-09-15T05:05:08.613Z,2.60
2022-09-15T05:08:05.779Z,3.60
2022-09-15T05:11:05.190Z,2.20
2022-09-15T05:14:02.845Z,3.00
2022-09-15T05:16:59.583Z,2.40
2022-09-15T05:19:56.435Z,5.80
2022-09-15T05:22:53.985Z,3.80
2022-09-15T05:25:57.596Z,3.00
2022-09-15T05:28:55.211Z,3.40
2022-09-15T05:31:52.921Z,4.00
2022-09-15T05:34:50.529Z,3.00
2022-09-15T05:37:47.983Z,4.60
2022-09-15T05:40:45.344Z,2.00
2022-09-15T05:43:42.511Z,2.40
2022-09-15T05:46:39.924Z,4.00
2022-09-15T05:49:36.790Z,3.40
2022-09-15T05:52:34.053Z,2.60
2022-09-15T05:55:37.434Z,1.00
2022-09-15T05:58:34.899Z,2.20
2022-09-15T06:01:31.720Z,3.40
2022-09-15T06:04:28.729Z,2.20
2022-09-15T06:07:25.642Z,3.00
2022-09-15T06:10:24.746Z,2.20
2022-09-15T06:13:22.036Z,2.00
2022-09-15T06:16:22.158Z,3.00
2022-09-15T06:19:20.051Z,3.00
2022-09-15T06:22:16.991Z,2.00
2022-09-15T06:25:14.430Z,2.00
2022-09-15T06:28:11.937Z,2.80
2022-09-15T06:31:10.332Z,4.00
2022-09-15T06:34:09.394Z,2.80
2022-09-15T06:37:08.109Z,3.20
2022-09-15T06:40:06.183Z,2.20
2022-09-15T06:43:05.425Z,2.00
2022-09-15T06:46:07.957Z,2.80
2022-09-15T06:49:04.845Z,2.20
2022-09-15T06:52:05.157Z,3.20
2022-09-15T06:55:02.850Z,3.20
2022-09-15T06:57:59.807Z,3.00
2022-09-15T07:01:10.306Z,1.40
2022-09-15T07:04:10.944Z,3.00
2022-09-15T07:07:08.090Z,3.60
2022-09-15T07:10:06.248Z,2.00
2022-09-15T07:13:03.965Z,2.00
2022-09-15T07:16:01.665Z,3.20
2022-09-15T07:19:01.275Z,3.00
2022-09-15T07:21:59.037Z,3.00
2022-09-15T07:24:56.023Z,2.20
2022-09-15T07:27:52.561Z,2.00
2022-09-15T07:30:50.939Z,1.00
2022-09-15T07:33:48.242Z,1.40
2022-09-15T07:36:45.962Z,1.00
2022-09-15T07:39:43.055Z,1.00
2022-09-15T07:42:43.423Z,1.00
2022-09-15T07:45:40.856Z,1.00
2022-09-15T07:48:37.937Z,1.00
2022-09-15T07:51:34.971Z,1.00
2022-09-15T07:54:31.933Z,1.00
2022-09-15T07:57:28.706Z,2.00
2022-09-15T08:00:25.797Z,1.60
2022-09-15T08:03:22.796Z,0.80
2022-09-15T08:06:21.695Z,0.60
2022-09-15T08:09:18.620Z,1.00
2022-09-15T08:12:16.556Z,0.80
2022-09-15T08:15:14.128Z,0.00
2022-09-15T08:18:11.277Z,1.00
2022-09-15T08:21:11.250Z,0.40
2022-09-15T08:24:09.241Z,1.00
2022-09-15T08:27:05.927Z,1.00
2022-09-15T08:30:03.315Z,0.00
2022-09-15T08:33:00.963Z,1.00
2022-09-15T08:36:02.259Z,0.80
2022-09-15T08:38:58.838Z,1.00
2022-09-15T08:41:55.743Z,0.00
2022-09-15T08:45:04.285Z,0.00
2022-09-15T08:48:03.300Z,0.80
2022-09-15T08:51:01.072Z,0.40
2022-09-15T08:54:02.101Z,0.00
2022-09-15T08:56:58.818Z,1.00
2022-09-15T08:59:56.117Z,0.80
2022-09-15T09:02:59.045Z,1.00
2022-09-15T09:06:21.537Z,0.00
2022-09-15T09:09:51.123Z,0.60
2022-09-15T09:13:03.994Z,1.20
2022-09-15T09:16:42.343Z,0.40
2022-09-15T09:20:01.403Z,0.00
2022-09-15T09:22:59.524Z,0.00
2022-09-15T09:25:57.419Z,1.00
2022-09-15T09:29:18.804Z,1.00
2022-09-15T09:32:26.649Z,0.20
2022-09-15T09:35:49.119Z,0.20
2022-09-15T09:38:46.433Z,0.40
2022-09-15T09:41:44.203Z,0.80
2022-09-15T09:44:40.829Z,0.00
2022-09-15T09:47:37.865Z,0.00
2022-09-15T09:50:44.713Z,0.00
2022-09-15T09:53:42.543Z,0.00
2022-09-15T09:56:40.419Z,0.00
2022-09-15T09:59:42.841Z,0.00
2022-09-15T10:02:46.894Z,0.00
2022-09-15T10:05:44.052Z,0.00
2022-09-15T10:09:03.897Z,0.80
2022-09-15T10:12:02.058Z,0.60
2022-09-15T10:15:03.903Z,1.00
2022-09-15T10:18:01.412Z,0.40
2022-09-15T10:20:59.965Z,0.20
2022-09-15T10:23:57.019Z,0.00
2022-09-15T10:27:06.973Z,1.40
2022-09-15T10:30:13.870Z,0.00
2022-09-15T10:33:25.295Z,0.00
2022-09-15T10:36:31.222Z,0.40
2022-09-15T10:39:48.590Z,1.20
2022-09-15T10:42:53.064Z,0.80
2022-09-15T10:45:55.336Z,1.00
2022-09-15T10:49:26.647Z,0.00
2022-09-15T10:52:26.622Z,0.00
2022-09-15T10:55:52.776Z,0.00
2022-09-15T10:59:32.362Z,0.40
2022-09-15T11:02:37.946Z,0.00
2022-09-15T11:05:57.242Z,1.00
2022-09-15T11:08:58.609Z,0.20
2022-09-15T11:11:59.075Z,1.00
2022-09-15T11:14:58.904Z,0.00
2022-09-15T11:17:55.941Z,0.40
2022-09-15T11:21:22.715Z,0.80
2022-09-15T11:24:29.312Z,1.40
2022-09-15T11:27:45.644Z,0.00
2022-09-15T11:30:47.904Z,0.00
2022-09-15T11:33:56.080Z,1.00
2022-09-15T11:37:15.613Z,0.20
2022-09-15T11:40:22.788Z,1.00
2022-09-15T11:43:37.771Z,1.00
2022-09-15T11:46:47.200Z,0.00
2022-09-15T11:49:53.252Z,0.00
2022-09-15T11:53:01.371Z,0.60
2022-09-15T11:56:43.491Z,1.00
2022-09-15T11:59:54.312Z,1.20
2022-09-15T12:03:03.543Z,0.00
2022-09-15T12:06:04.404Z,1.00
2022-09-15T12:09:05.181Z,2.60
2022-09-15T12:12:07.017Z,1.60
2022-09-15T12:15:04.647Z,0.60
2022-09-15T12:18:38.156Z,0.00
2022-09-15T12:21:45.540Z,1.60
2022-09-15T12:24:58.895Z,1.00
2022-09-15T12:28:22.818Z,1.00
2022-09-15T12:31:26.412Z,1.00
2022-09-15T12:34:30.559Z,1.00
2022-09-15T12:37:49.810Z,1.00
2022-09-15T12:40:47.292Z,0.60
2022-09-15T12:43:54.860Z,0.00
2022-09-15T12:46:56.015Z,0.00
2022-09-15T12:49:53.693Z,1.00
2022-09-15T12:52:53.605Z,0.00
2022-09-15T12:55:52.878Z,1.00
2022-09-15T12:58:50.974Z,0.00
2022-09-15T13:01:49.129Z,0.40
2022-09-15T13:04:54.064Z,0.00
2022-09-15T13:07:57.047Z,0.00
2022-09-15T13:11:11.236Z,2.00
2022-09-15T13:14:40.097Z,0.20
2022-09-15T13:17:37.257Z,1.00
2022-09-15T13:20:34.549Z,0.60
2022-09-15T13:23:38.507Z,0.00
2022-09-15T13:26:36.219Z,0.00
2022-09-15T13:29:33.284Z,0.00
2022-09-15T13:32:33.169Z,0.00
2022-09-15T13:35:42.927Z,0.00
2022-09-15T13:39:04.461Z,0.00
2022-09-15T13:42:02.328Z,0.00
2022-09-15T13:45:17.484Z,0.00
2022-09-15T13:48:40.257Z,0.00
2022-09-15T13:51:37.277Z,1.00
2022-09-15T13:54:34.266Z,0.20
2022-09-15T14:00:54.961Z,0.00
2022-09-15T14:04:00.905Z,0.00
2022-09-15T14:07:01.325Z,0.00
2022-09-15T14:09:58.928Z,1.00
2022-09-15T14:12:59.263Z,1.00
2022-09-15T14:16:08.017Z,1.00
2022-09-15T14:19:25.870Z,0.00
2022-09-15T14:22:41.355Z,0.00
2022-09-15T14:25:38.186Z,0.80
2022-09-15T14:28:35.855Z,0.60
2022-09-15T14:31:43.031Z,1.00
2022-09-15T14:34:42.055Z,0.00
2022-09-15T14:37:39.442Z,1.00
2022-09-15T14:40:37.916Z,0.20
2022-09-15T14:43:42.082Z,1.00
2022-09-15T14:46:39.723Z,0.00
2022-09-15T14:49:37.617Z,0.00
2022-09-15T14:52:50.428Z,0.00
2022-09-15T14:56:00.614Z,0.00
2022-09-15T14:59:03.275Z,0.00
2022-09-15T15:02:17.899Z,1.00
2022-09-15T15:05:18.163Z,0.00
2022-09-15T15:08:26.391Z,0.00
2022-09-15T15:11:23.492Z,0.80
2022-09-15T15:17:51.081Z,1.00
2022-09-15T15:20:51.459Z,1.00
2022-09-15T15:23:48.627Z,1.00
2022-09-15T15:26:48.076Z,1.00
2022-09-15T15:29:47.108Z,0.20
2022-09-15T15:32:44.145Z,1.00
2022-09-15T15:35:41.058Z,1.00
2022-09-15T15:39:05.940Z,1.80
2022-09-15T15:42:08.402Z,1.00
2022-09-15T15:45:23.347Z,1.00
2022-09-15T15:48:20.250Z,0.00
2022-09-15T15:51:17.259Z,2.00
2022-09-15T15:54:14.558Z,1.00
2022-09-15T15:57:24.967Z,0.00
2022-09-15T16:00:27.666Z,0.00
2022-09-15T16:03:25.617Z,0.00
2022-09-15T16:06:23.662Z,0.00
2022-09-15T16:09:21.558Z,0.20
2022-09-15T16:12:18.360Z,1.00
2022-09-15T16:15:20.421Z,0.00
2022-09-15T16:18:17.122Z,1.20
2022-09-15T16:21:30.020Z,0.40
2022-09-15T16:24:27.170Z,1.00
2022-09-15T16:27:24.244Z,0.00
2022-09-15T16:30:21.372Z,1.00
2022-09-15T16:33:18.755Z,0.60
2022-09-15T16:36:16.756Z,1.00
2022-09-15T16:39:14.087Z,0.60
2022-09-15T16:42:11.554Z,0.40
2022-09-15T16:45:35.252Z,1.00
2022-09-15T16:48:35.662Z,0.40
2022-09-15T16:51:33.422Z,1.00
2022-09-15T16:54:30.699Z,0.00
2022-09-15T16:57:28.036Z,1.00
2022-09-15T17:00:27.372Z,0.20
2022-09-15T17:03:25.129Z,1.00
2022-09-15T17:06:22.578Z,0.60
2022-09-15T17:09:19.462Z,0.60
2022-09-15T17:12:16.092Z,0.20
2022-09-15T17:15:22.785Z,0.00
2022-09-15T17:18:21.316Z,1.00
2022-09-15T17:21:19.432Z,1.00
2022-09-15T17:24:17.453Z,1.00
2022-09-15T17:27:14.544Z,0.20
2022-09-15T17:30:13.151Z,1.00
2022-09-15T17:33:13.676Z,1.00
2022-09-15T17:36:10.598Z,1.00
2022-09-15T17:39:07.266Z,1.00
2022-09-15T17:42:04.282Z,1.00
2022-09-15T17:45:01.317Z,0.40
2022-09-15T17:47:58.296Z,1.00
2022-09-15T17:50:55.489Z,0.60
2022-09-15T17:53:52.802Z,1.00
2022-09-15T17:56:50.105Z,2.00
2022-09-15T17:59:47.275Z,1.00
2022-09-15T18:02:45.003Z,1.00
2022-09-15T18:05:42.411Z,0.60
2022-09-15T18:08:39.599Z,0.20
2022-09-15T18:11:36.625Z,2.00
2022-09-15T18:14:33.662Z,1.60
2022-09-15T18:17:30.609Z,2.20
2022-09-15T18:20:28.216Z,1.80
2022-09-15T18:23:26.363Z,1.00
2022-09-15T18:26:26.377Z,1.00
2022-09-15T18:29:24.473Z,1.00
2022-09-15T18:32:21.527Z,2.00
2022-09-15T18:35:19.488Z,1.00
2022-09-15T18:38:16.608Z,1.20
2022-09-15T18:41:13.801Z,1.00
2022-09-15T18:44:11.144Z,1.60
2022-09-15T18:47:08.795Z,1.00
2022-09-15T18:50:06.979Z,0.00
2022-09-15T18:53:05.003Z,0.00
2022-09-15T18:56:09.903Z,1.00
2022-09-15T18:59:07.335Z,1.00
2022-09-15T19:02:04.285Z,1.00
2022-09-15T19:05:01.460Z,0.00
2022-09-15T19:07:58.750Z,0.00
2022-09-15T19:11:02.595Z,0.00
2022-09-15T19:13:59.849Z,1.00
2022-09-15T19:16:58.485Z,1.40
2022-09-15T19:19:55.903Z,1.00
2022-09-15T19:22:53.671Z,0.40
2022-09-15T19:25:50.374Z,1.00
2022-09-15T19:28:50.248Z,0.40
2022-09-15T19:31:47.759Z,1.00
2022-09-15T19:34:46.003Z,1.00
2022-09-15T19:37:43.943Z,1.00
2022-09-15T19:40:41.433Z,0.00
2022-09-15T19:43:41.662Z,0.00
2022-09-15T19:46:38.398Z,0.00
2022-09-15T19:49:35.536Z,1.00
2022-09-15T19:52:32.842Z,0.00
2022-09-15T19:55:30.549Z,0.00
2022-09-15T19:58:27.467Z,0.00
2022-09-15T20:01:26.414Z,0.00
2022-09-15T20:04:23.415Z,0.00
2022-09-15T20:07:20.227Z,1.00
2022-09-15T20:10:17.923Z,0.00
2022-09-15T20:13:16.407Z,0.20
2022-09-15T20:16:17.747Z,0.80
2022-09-15T20:19:14.740Z,0.40
2022-09-15T20:22:12.972Z,0.00
2022-09-15T20:25:12.468Z,1.00
2022-09-15T20:28:09.766Z,0.00
2022-09-15T20:31:08.768Z,0.80
2022-09-15T20:34:05.725Z,0.00
2022-09-15T20:37:02.518Z,0.00
2022-09-15T20:40:00.078Z,0.00
2022-09-15T20:42:57.372Z,0.00
2022-09-15T20:46:01.490Z,1.00
2022-09-15T20:48:58.435Z,0.00
2022-09-15T20:51:55.835Z,1.00
2022-09-15T20:54:52.919Z,1.00
2022-09-15T20:57:50.799Z,1.00
2022-09-15T21:00:49.031Z,1.00
2022-09-15T21:03:46.553Z,0.80
2022-09-15T21:06:43.935Z,1.40
2022-09-15T21:09:41.851Z,1.00
2022-09-15T21:12:39.517Z,1.60
2022-09-15T21:15:36.587Z,1.80
2022-09-15T21:18:34.911Z,1.20
2022-09-15T21:21:32.651Z,1.00
2022-09-15T21:24:29.692Z,1.00
2022-09-15T21:27:27.057Z,1.00
2022-09-15T21:30:24.741Z,2.00
2022-09-15T21:33:21.552Z,1.80
2022-09-15T21:36:27.037Z,2.00
2022-09-15T21:39:24.410Z,1.00
2022-09-15T21:42:22.572Z,1.60
2022-09-15T21:45:19.791Z,1.00
2022-09-15T21:48:17.119Z,1.00
2022-09-15T21:51:18.778Z,4.00
2022-09-15T21:54:19.602Z,1.40
2022-09-15T21:57:17.095Z,1.00
2022-09-15T22:00:15.122Z,0.40
2022-09-15T22:03:12.708Z,1.40
2022-09-15T22:06:11.075Z,0.40
2022-09-15T22:09:15.055Z,1.00
2022-09-15T22:12:13.067Z,0.00
2022-09-15T22:15:10.974Z,1.00
2022-09-15T22:18:08.809Z,0.80
2022-09-15T22:21:19.644Z,1.00
2022-09-15T22:24:16.530Z,1.00
2022-09-15T22:27:13.593Z,1.00
2022-09-15T22:30:11.039Z,1.20
2022-09-15T22:33:08.895Z,1.00
2022-09-15T22:36:10.165Z,1.00
2022-09-15T22:39:07.817Z,1.00
2022-09-15T22:42:04.712Z,1.00
2022-09-15T22:45:03.528Z,1.00
2022-09-15T22:48:00.582Z,1.00
2022-09-15T22:50:57.492Z,1.00
2022-09-15T22:53:56.802Z,0.60
2022-09-15T22:56:54.081Z,1.80
2022-09-15T22:59:51.872Z,1.20
2022-09-15T23:02:50.120Z,1.00
2022-09-15T23:05:47.753Z,1.00
2022-09-15T23:08:44.506Z,1.00
2022-09-15T23:11:41.956Z,0.00
2022-09-15T23:14:39.887Z,1.00
2022-09-15T23:17:36.884Z,1.00
2022-09-15T23:20:33.623Z,0.00
2022-09-15T23:23:30.595Z,1.20
2022-09-15T23:26:28.002Z,1.00
2022-09-15T23:29:26.455Z,1.00
2022-09-15T23:32:23.784Z,1.00
2022-09-15T23:35:20.423Z,1.00
2022-09-15T23:38:18.688Z,0.60
2022-09-15T23:41:15.921Z,1.00
2022-09-15T23:44:12.606Z,1.00
2022-09-15T23:47:09.576Z,1.20
2022-09-15T23:50:06.944Z,0.60
2022-09-15T23:53:03.610Z,1.40
2022-09-15T23:56:00.911Z,0.60
2022-09-15T23:58:57.689Z,0.00
